createdAt,value
2019-01-25T00:03:10.249Z,100991.55
2019-01-25T00:05:55.542Z,100986.75
2019-01-25T00:08:22.408Z,100986.75
2019-01-25T00:10:49.147Z,100991.95
2019-01-25T00:13:16.633Z,100994.59
2019-01-25T00:15:44.452Z,101000.50
2019-01-25T00:18:31.166Z,101002.45
2019-01-25T00:21:11.310Z,101002.31
2019-01-25T00:23:50.671Z,100998.46
2019-01-25T00:26:29.882Z,100998.46
2019-01-25T00:29:10.015Z,101003.47
2019-01-25T00:34:15.421Z,100999.32
2019-01-25T00:36:42.291Z,101011.05
2019-01-25T00:41:06.396Z,101013.75
2019-01-25T00:43:33.239Z,101015.17
2019-01-25T00:45:59.982Z,101006.11
2019-01-25T00:48:27.119Z,101012.79
2019-01-25T00:50:53.937Z,101008.12
2019-01-25T00:53:20.682Z,101013.08
2019-01-25T00:55:47.771Z,101000.50
2019-01-25T00:58:14.895Z,101006.86
2019-01-25T01:00:41.646Z,101005.38
2019-01-25T01:03:08.477Z,100996.36
2019-01-25T01:05:54.869Z,100997.17
2019-01-25T01:08:21.858Z,100997.17
2019-01-25T01:10:48.906Z,101004.54
2019-01-25T01:13:15.927Z,100999.47
2019-01-25T01:16:02.385Z,100998.94
2019-01-25T01:18:29.226Z,100995.09
2019-01-25T01:21:15.576Z,101010.69
2019-01-25T01:23:42.314Z,100986.23
2019-01-25T01:26:09.074Z,101020.16
2019-01-25T01:28:36.324Z,101014.93
2019-01-25T01:31:03.065Z,101018.41
2019-01-25T01:33:29.807Z,101017.03
2019-01-25T01:35:56.675Z,101019.90
2019-01-25T01:38:23.427Z,101018.77
2019-01-25T01:40:50.171Z,100978.41
2019-01-25T01:43:17.166Z,101015.17
2019-01-25T01:45:44.186Z,101010.77
2019-01-25T01:48:10.934Z,101010.77
2019-01-25T01:50:57.250Z,101019.84
2019-01-25T01:53:24.095Z,101019.84
2019-01-25T01:55:51.142Z,101014.05
2019-01-25T01:58:18.015Z,101020.58
2019-01-25T02:00:44.763Z,101019.20
2019-01-25T02:03:11.782Z,101024.70
2019-01-25T02:05:38.619Z,101026.37
2019-01-25T02:08:05.456Z,101013.09
2019-01-25T02:10:32.190Z,101013.09
2019-01-25T02:12:59.091Z,101019.99
2019-01-25T02:15:25.938Z,101014.16
2019-01-25T02:18:33.849Z,101018.81
2019-01-25T02:21:41.717Z,101013.08
2019-01-25T02:24:08.634Z,101003.72
2019-01-25T02:26:35.273Z,101014.69
2019-01-25T02:29:02.181Z,101012.64
2019-01-25T02:31:48.524Z,101001.89
2019-01-25T02:34:15.257Z,101001.89
2019-01-25T02:36:42.282Z,100999.58
2019-01-25T02:39:09.252Z,101000.95
2019-01-25T02:41:36.098Z,100994.59
2019-01-25T02:44:02.986Z,101003.47
2019-01-25T02:46:29.848Z,101003.47
2019-01-25T02:48:56.601Z,100986.63
2019-01-25T02:51:23.531Z,101000.67
2019-01-25T02:53:50.674Z,100993.34
2019-01-25T02:56:37.303Z,100992.76
2019-01-25T02:59:23.838Z,100987.34
2019-01-25T03:02:10.100Z,101002.00
2019-01-25T03:04:36.960Z,101002.00
2019-01-25T03:07:04.072Z,100988.55
2019-01-25T03:09:30.816Z,100988.55
2019-01-25T03:12:17.376Z,100996.39
2019-01-25T03:14:44.118Z,100996.48
2019-01-25T03:17:30.511Z,100991.70
2019-01-25T03:19:57.260Z,100994.28
2019-01-25T03:22:23.914Z,100994.66
2019-01-25T03:25:11.397Z,100992.23
2019-01-25T03:27:38.236Z,100992.23
2019-01-25T03:30:46.529Z,100993.81
2019-01-25T03:33:32.762Z,100997.52
2019-01-25T03:35:59.588Z,100997.52
2019-01-25T03:38:26.234Z,100998.20
2019-01-25T03:41:12.588Z,100999.48
2019-01-25T03:43:39.637Z,100999.48
2019-01-25T03:46:06.484Z,100996.39
2019-01-25T03:48:33.730Z,101012.56
2019-01-25T03:51:00.579Z,100999.75
2019-01-25T03:53:27.324Z,101016.02
2019-01-25T03:55:54.193Z,101013.03
2019-01-25T03:58:21.605Z,101018.59
2019-01-25T04:01:08.622Z,101009.44
2019-01-25T04:03:35.385Z,101009.44
2019-01-25T04:06:02.130Z,101014.47
2019-01-25T04:08:48.979Z,101009.05
2019-01-25T04:11:16.091Z,101009.05
2019-01-25T04:13:42.826Z,101010.08
2019-01-25T04:16:09.799Z,101009.11
2019-01-25T04:18:36.540Z,101020.20
2019-01-25T04:21:23.098Z,101024.55
2019-01-25T04:23:50.236Z,101027.13
2019-01-25T04:26:17.389Z,101011.39
2019-01-25T04:28:44.260Z,101012.03
2019-01-25T04:31:23.408Z,101014.05
2019-01-25T04:34:02.660Z,101020.90
2019-01-25T04:36:30.054Z,101020.90
2019-01-25T04:38:56.798Z,101015.05
2019-01-25T04:41:43.298Z,101015.89
2019-01-25T04:44:09.945Z,101015.89
2019-01-25T04:46:36.968Z,101013.70
2019-01-25T04:49:03.967Z,101012.36
2019-01-25T04:51:30.703Z,101011.59
2019-01-25T04:53:57.563Z,101013.85
2019-01-25T04:56:24.512Z,101014.05
2019-01-25T04:59:10.874Z,101017.18
2019-01-25T05:01:37.742Z,101019.64
2019-01-25T05:07:14.219Z,101021.19
2019-01-25T05:09:40.958Z,101005.16
2019-01-25T05:12:07.712Z,101027.33
2019-01-25T05:14:54.039Z,101017.53
2019-01-25T05:17:40.295Z,101014.88
2019-01-25T05:20:26.734Z,101027.06
2019-01-25T05:22:55.759Z,101029.35
2019-01-25T05:25:23.874Z,101029.35
2019-01-25T05:27:51.179Z,101023.41
2019-01-25T05:30:37.839Z,101023.29
2019-01-25T05:33:05.210Z,101023.29
2019-01-25T05:35:33.915Z,101021.39
2019-01-25T05:38:13.336Z,101020.58
2019-01-25T05:40:40.621Z,101020.58
2019-01-25T05:44:31.900Z,101015.48
2019-01-25T05:46:58.882Z,101014.93
2019-01-25T05:49:25.623Z,101004.66
2019-01-25T05:51:52.502Z,101018.32
2019-01-25T05:54:19.246Z,101016.09
2019-01-25T05:56:45.926Z,101012.59
2019-01-25T05:59:32.401Z,101016.22
2019-01-25T06:01:59.164Z,101016.22
2019-01-25T06:04:32.279Z,101013.89
2019-01-25T06:06:59.219Z,101004.95
2019-01-25T06:09:25.966Z,101004.95
2019-01-25T06:11:52.718Z,101010.56
2019-01-25T06:14:19.554Z,101010.56
2019-01-25T06:16:46.288Z,101014.22
2019-01-25T06:19:52.231Z,101020.45
2019-01-25T06:22:19.289Z,101020.45
2019-01-25T06:24:47.227Z,101023.69
2019-01-25T06:27:14.549Z,101012.68
2019-01-25T06:29:41.243Z,101012.68
2019-01-25T06:32:08.195Z,101025.85
2019-01-25T06:34:54.692Z,101026.26
2019-01-25T06:37:21.522Z,101026.26
2019-01-25T06:40:01.101Z,101027.17
2019-01-25T06:42:27.902Z,101028.77
2019-01-25T06:44:54.764Z,101028.77
2019-01-25T06:47:41.226Z,101028.84
2019-01-25T06:50:27.628Z,101036.50
2019-01-25T06:52:55.157Z,101036.50
2019-01-25T06:55:22.002Z,101033.23
2019-01-25T06:58:08.434Z,101034.11
2019-01-25T07:03:46.837Z,101040.03
2019-01-25T07:06:33.216Z,101049.00
2019-01-25T07:09:00.027Z,101052.21
2019-01-25T07:11:51.627Z,101054.37
2019-01-25T07:14:15.308Z,101061.48
2019-01-25T07:16:42.291Z,101061.48
2019-01-25T07:19:28.774Z,101061.48
2019-01-25T07:21:55.646Z,101061.48
2019-01-25T07:24:22.583Z,101071.16
2019-01-25T07:26:49.409Z,101059.86
2019-01-25T07:29:35.788Z,101059.77
2019-01-25T07:32:02.942Z,101078.66
2019-01-25T07:34:49.209Z,101055.64
2019-01-25T07:37:29.270Z,101060.73
2019-01-25T07:39:56.377Z,101060.73
2019-01-25T07:42:23.564Z,101053.95
2019-01-25T07:45:03.861Z,101062.77
2019-01-25T07:47:32.756Z,101062.77
2019-01-25T07:50:19.184Z,101060.86
2019-01-25T07:52:46.409Z,101060.86
2019-01-25T07:55:13.251Z,101064.85
2019-01-25T07:57:40.370Z,101059.04
2019-01-25T08:00:07.853Z,101061.13
2019-01-25T08:02:54.315Z,101069.25
2019-01-25T08:05:21.633Z,101069.25
2019-01-25T08:07:48.547Z,101069.05
2019-01-25T08:10:16.057Z,101069.66
2019-01-25T08:12:43.157Z,101069.66
2019-01-25T08:15:12.585Z,101069.88
2019-01-25T08:17:39.500Z,101069.88
2019-01-25T08:22:55.656Z,101064.52
2019-01-25T08:25:22.545Z,101064.52
2019-01-25T08:27:49.380Z,101062.30
2019-01-25T08:30:16.701Z,101063.04
2019-01-25T08:32:43.541Z,101071.44
2019-01-25T08:35:11.056Z,101061.41
2019-01-25T08:37:37.869Z,101073.45
2019-01-25T08:40:05.029Z,101065.45
2019-01-25T08:42:31.908Z,101074.11
2019-01-25T08:44:59.822Z,101074.11
2019-01-25T08:47:28.020Z,101076.05
2019-01-25T08:50:15.529Z,101080.17
2019-01-25T08:52:42.337Z,101066.53
2019-01-25T08:55:09.362Z,101066.53
2019-01-25T08:57:36.426Z,101077.97
2019-01-25T09:00:45.284Z,101075.90
2019-01-25T09:03:12.104Z,101084.00
2019-01-25T09:05:58.667Z,101077.48
2019-01-25T09:08:26.995Z,101077.48
2019-01-25T09:11:14.753Z,101082.89
2019-01-25T09:13:42.493Z,101082.89
2019-01-25T09:16:28.895Z,101073.64
2019-01-25T09:19:15.699Z,101081.56
2019-01-25T09:21:42.486Z,101081.56
2019-01-25T09:24:09.385Z,101083.16
2019-01-25T09:26:56.037Z,101085.42
2019-01-25T09:29:23.064Z,101088.74
2019-01-25T09:31:49.951Z,101086.19
2019-01-25T09:34:16.689Z,101081.97
2019-01-25T09:36:43.804Z,101081.97
2019-01-25T09:39:30.213Z,101094.74
2019-01-25T09:41:57.988Z,101094.74
2019-01-25T09:44:25.007Z,101058.93
2019-01-25T09:46:53.490Z,101093.09
2019-01-25T09:52:26.045Z,101089.06
2019-01-25T09:54:53.001Z,101089.06
2019-01-25T09:57:20.706Z,101094.55
2019-01-25T09:59:48.004Z,101085.99
2019-01-25T10:02:14.885Z,101090.73
2019-01-25T10:04:41.668Z,101090.70
2019-01-25T10:07:08.599Z,101090.70
2019-01-25T10:09:35.389Z,101083.61
2019-01-25T10:12:02.424Z,101076.68
2019-01-25T10:14:29.356Z,101082.69
2019-01-25T10:16:56.167Z,101072.97
2019-01-25T10:19:23.213Z,101067.33
2019-01-25T10:21:50.133Z,101064.18
2019-01-25T10:24:17.272Z,101059.00
2019-01-25T10:26:44.460Z,101066.64
2019-01-25T10:29:11.382Z,101054.47
2019-01-25T10:31:38.322Z,101050.87
2019-01-25T10:34:05.295Z,101057.82
2019-01-25T10:36:32.570Z,101062.16
2019-01-25T10:39:18.836Z,101053.93
2019-01-25T10:41:45.550Z,101053.93
2019-01-25T10:44:12.568Z,101051.47
2019-01-25T10:46:39.302Z,101055.00
2019-01-25T10:49:06.119Z,101055.38
2019-01-25T10:51:32.873Z,101051.34
2019-01-25T10:53:59.611Z,101058.59
2019-01-25T10:56:41.888Z,101046.66
2019-01-25T10:59:08.033Z,101046.66
2019-01-25T11:01:34.841Z,101053.91
2019-01-25T11:04:02.101Z,101054.99
2019-01-25T11:06:28.837Z,101056.80
2019-01-25T11:08:55.856Z,101052.36
2019-01-25T11:11:22.758Z,101042.91
2019-01-25T11:13:49.486Z,101045.53
2019-01-25T11:16:16.226Z,101048.85
2019-01-25T11:18:43.355Z,101040.27
2019-01-25T11:21:11.312Z,101040.69
2019-01-25T11:23:58.503Z,101029.97
2019-01-25T11:26:25.401Z,101029.97
2019-01-25T11:28:52.609Z,101032.64
2019-01-25T11:31:19.591Z,101034.03
2019-01-25T11:33:46.725Z,101030.27
2019-01-25T11:36:13.520Z,101028.20
2019-01-25T11:38:40.588Z,101033.97
2019-01-25T11:41:07.646Z,101029.98
2019-01-25T11:43:34.929Z,101027.09
2019-01-25T11:46:02.249Z,101028.55
2019-01-25T11:48:29.177Z,101035.23
2019-01-25T11:51:01.095Z,101037.19
2019-01-25T11:53:28.329Z,101044.88
2019-01-25T11:55:55.543Z,101049.96
2019-01-25T11:58:22.564Z,101041.66
2019-01-25T13:14:10.541Z,100988.14
2019-01-25T13:16:37.315Z,100984.81
2019-01-25T13:19:04.389Z,100981.31
2019-01-25T13:21:32.035Z,100978.75
2019-01-25T13:23:58.978Z,100982.66
2019-01-25T13:26:26.104Z,100977.66
2019-01-25T13:28:52.987Z,100986.80
2019-01-25T13:31:19.817Z,100988.18
2019-01-25T13:33:46.902Z,100990.25
2019-01-25T13:36:13.787Z,100987.39
2019-01-25T13:38:40.740Z,100991.08
2019-01-25T13:41:07.602Z,100983.94
2019-01-25T13:43:54.009Z,100981.89
2019-01-25T13:46:20.904Z,100981.89
2019-01-25T13:48:47.659Z,100977.91
2019-01-25T13:51:15.110Z,100970.84
2019-01-25T13:53:42.475Z,100963.09
2019-01-25T13:56:09.296Z,100971.31
2019-01-25T13:58:55.682Z,100961.92
2019-01-25T14:01:22.430Z,100966.81
2019-01-25T14:03:49.338Z,100963.52
2019-01-25T14:06:16.320Z,100966.56
2019-01-25T14:08:43.164Z,100959.34
2019-01-25T14:11:10.277Z,100961.50
2019-01-25T14:13:37.012Z,100956.39
2019-01-25T14:16:16.197Z,100963.67
2019-01-25T14:18:45.038Z,100955.92
2019-01-25T14:21:12.162Z,100957.83
2019-01-25T14:23:38.897Z,100950.41
2019-01-25T14:26:05.858Z,100944.88
2019-01-25T14:28:32.616Z,100942.25
2019-01-25T14:30:59.359Z,100940.08
2019-01-25T14:33:26.827Z,100937.71
2019-01-25T14:35:53.595Z,100935.13
2019-01-25T14:38:20.339Z,100930.70
2019-01-25T14:40:48.161Z,100931.16
2019-01-25T14:43:14.917Z,100938.85
2019-01-25T14:45:42.037Z,100945.52
2019-01-25T14:48:09.262Z,100934.66
2019-01-25T14:50:36.394Z,100940.75
2019-01-25T14:53:44.638Z,100943.80
2019-01-25T14:56:12.164Z,100946.84
2019-01-25T14:58:39.339Z,100945.23
2019-01-25T15:01:06.407Z,100944.86
2019-01-25T15:03:33.547Z,100946.71
2019-01-25T15:06:00.475Z,100940.92
2019-01-25T15:08:27.374Z,100938.29
2019-01-25T15:10:54.148Z,100940.28
2019-01-25T15:13:20.895Z,100936.95
2019-01-25T15:15:47.895Z,100927.00
2019-01-25T15:18:14.800Z,100932.72
2019-01-25T15:20:41.678Z,100932.72
2019-01-25T15:23:08.636Z,100930.52
2019-01-25T15:25:35.410Z,100931.07
2019-01-25T15:28:02.570Z,100931.84
2019-01-25T15:30:30.749Z,100926.00
2019-01-25T15:32:57.981Z,100929.68
2019-01-25T15:35:24.970Z,100917.77
2019-01-25T15:37:51.786Z,100920.00
2019-01-25T15:40:18.636Z,100913.44
2019-01-25T15:42:45.482Z,100921.17
2019-01-25T15:45:54.202Z,100923.70
2019-01-25T15:48:21.100Z,100915.45
2019-01-25T15:50:47.995Z,100929.27
2019-01-25T15:53:15.215Z,100931.66
2019-01-25T15:55:42.531Z,100930.41
2019-01-25T15:58:09.329Z,100928.55
2019-01-25T16:00:36.414Z,100938.34
2019-01-25T16:03:03.449Z,100939.73
2019-01-25T16:05:30.401Z,100951.45
2019-01-25T16:07:57.575Z,100947.95
2019-01-25T16:10:24.444Z,100953.76
2019-01-25T16:12:51.923Z,100943.96
2019-01-25T16:15:21.076Z,100944.61
2019-01-25T16:18:28.862Z,100946.38
2019-01-25T16:21:08.406Z,100936.41
2019-01-25T16:23:35.296Z,100943.39
2019-01-25T16:26:02.189Z,100940.70
2019-01-25T16:28:29.277Z,100945.80
2019-01-25T16:30:56.185Z,100939.94
2019-01-25T16:33:23.075Z,100932.91
2019-01-25T16:35:50.102Z,100938.23
2019-01-25T16:38:16.990Z,100939.78
2019-01-25T16:40:44.333Z,100939.54
2019-01-25T16:43:11.883Z,100935.27
2019-01-25T16:45:40.955Z,100927.20
2019-01-25T16:48:07.866Z,100935.11
2019-01-25T16:50:35.488Z,100949.81
2019-01-25T16:53:02.458Z,100935.23
2019-01-25T16:55:30.252Z,100933.70
2019-01-25T16:58:17.720Z,100931.03
2019-01-25T17:00:46.056Z,100931.03
2019-01-25T17:03:12.962Z,100922.69
2019-01-25T17:05:39.977Z,100920.57
2019-01-25T17:08:07.392Z,100922.03
2019-01-25T17:10:34.807Z,100925.34
2019-01-25T17:13:01.877Z,100923.06
2019-01-25T17:15:28.766Z,100920.07
2019-01-25T17:17:55.658Z,100915.37
2019-01-25T17:20:22.841Z,100915.69
2019-01-25T17:23:02.917Z,100903.41
2019-01-25T17:25:29.731Z,100906.67
2019-01-25T17:27:56.767Z,100904.78
2019-01-25T17:30:25.805Z,100899.30
2019-01-25T17:32:53.757Z,100898.57
2019-01-25T17:35:20.602Z,100893.70
2019-01-25T17:37:47.359Z,100890.38
2019-01-25T17:40:15.549Z,100880.48
2019-01-25T17:42:42.391Z,100873.81
2019-01-25T17:48:45.390Z,100872.38
2019-01-25T17:51:12.374Z,100874.45
2019-01-25T17:53:40.005Z,100865.72
2019-01-25T17:56:08.173Z,100861.86
2019-01-25T17:58:34.934Z,100860.83
2019-01-25T18:01:01.951Z,100861.20
2019-01-25T18:03:28.655Z,100852.44
2019-01-25T18:05:55.616Z,100854.39
2019-01-25T18:08:22.879Z,100851.81
2019-01-25T18:10:49.844Z,100848.94
2019-01-25T18:13:16.595Z,100851.46
2019-01-25T18:15:43.457Z,100832.47
2019-01-25T18:18:10.935Z,100834.59
2019-01-25T18:20:37.686Z,100836.34
2019-01-25T18:23:04.833Z,100824.55
2019-01-25T18:25:45.033Z,100819.23
2019-01-25T18:28:15.489Z,100804.89
2019-01-25T18:30:51.809Z,100802.52
2019-01-25T18:33:18.658Z,100796.19
2019-01-25T18:35:45.692Z,100792.02
2019-01-25T18:38:12.599Z,100788.66
2019-01-25T18:40:39.456Z,100781.91
2019-01-25T18:43:06.432Z,100779.08
2019-01-25T18:45:33.384Z,100777.88
2019-01-25T18:48:00.135Z,100774.08
2019-01-25T18:50:27.099Z,100769.69
2019-01-25T18:52:53.985Z,100763.97
2019-01-25T18:55:21.248Z,100763.34
2019-01-25T18:57:48.111Z,100760.45
2019-01-25T19:00:17.065Z,100758.79
2019-01-25T19:02:43.892Z,100752.55
2019-01-25T19:05:11.375Z,100752.91
2019-01-25T19:07:38.169Z,100753.89
2019-01-25T19:10:07.672Z,100739.23
2019-01-25T19:12:34.316Z,100742.73
2019-01-25T19:15:22.097Z,100739.71
2019-01-25T19:17:48.948Z,100739.71
2019-01-25T19:20:15.836Z,100725.02
2019-01-25T19:22:42.699Z,100725.02
2019-01-25T19:25:09.850Z,100730.69
2019-01-25T19:27:50.454Z,100729.22
2019-01-25T19:30:20.627Z,100724.92
2019-01-25T19:32:47.497Z,100729.09
2019-01-25T19:35:14.413Z,100722.23
2019-01-25T19:37:41.301Z,100719.34
2019-01-25T19:40:10.369Z,100713.30
2019-01-25T19:42:37.282Z,100711.96
2019-01-25T19:45:45.667Z,100716.23
2019-01-25T19:48:12.640Z,100707.02
2019-01-25T19:50:40.140Z,100702.42
2019-01-25T19:53:06.996Z,100701.19
2019-01-25T19:55:33.929Z,100713.88
2019-01-25T19:58:00.795Z,100710.84
2019-01-25T20:00:47.102Z,100705.22
2019-01-25T20:03:13.971Z,100700.06
2019-01-25T20:05:40.964Z,100703.62
2019-01-25T20:08:07.864Z,100700.21
2019-01-25T20:10:34.619Z,100696.17
2019-01-25T20:13:01.804Z,100695.42
2019-01-25T20:15:29.054Z,100689.34
2019-01-25T20:17:55.911Z,100696.92
2019-01-25T20:20:27.258Z,100686.20
2019-01-25T20:22:54.167Z,100682.08
2019-01-25T20:25:21.159Z,100676.58
2019-01-25T20:27:48.491Z,100673.53
2019-01-25T20:30:58.098Z,100672.70
2019-01-25T20:33:25.013Z,100670.33
2019-01-25T20:35:52.197Z,100662.98
2019-01-25T20:38:38.516Z,100656.74
2019-01-25T20:41:07.191Z,100656.74
2019-01-25T20:43:33.946Z,100654.11
2019-01-25T20:46:00.871Z,100664.31
2019-01-25T20:48:27.547Z,100660.50
2019-01-25T20:50:54.347Z,100651.44
2019-01-25T20:53:21.234Z,100651.13
2019-01-25T20:55:48.369Z,100642.00
2019-01-25T20:58:15.223Z,100643.71
2019-01-25T21:00:42.202Z,100636.50
2019-01-25T21:03:11.385Z,100641.65
2019-01-25T21:05:38.238Z,100630.52
2019-01-25T21:08:05.151Z,100633.09
2019-01-25T21:10:31.903Z,100625.00
2019-01-25T21:12:59.278Z,100621.59
2019-01-25T21:15:26.579Z,100618.97
2019-01-25T21:17:54.167Z,100621.22
2019-01-25T21:20:27.005Z,100620.22
2019-01-25T21:22:54.160Z,100605.67
2019-01-25T21:25:40.516Z,100593.40
2019-01-25T21:28:07.419Z,100593.40
2019-01-25T21:30:46.940Z,100599.84
2019-01-25T21:33:13.838Z,100589.02
2019-01-25T21:35:40.580Z,100587.91
2019-01-25T21:38:07.338Z,100576.59
2019-01-25T21:41:15.292Z,100581.44
2019-01-25T21:43:41.947Z,100578.81
2019-01-25T21:46:08.702Z,100578.11
2019-01-25T21:48:35.624Z,100578.54
2019-01-25T21:51:02.514Z,100576.60
2019-01-25T21:53:29.763Z,100577.00
2019-01-25T21:55:56.672Z,100574.16
2019-01-25T21:58:23.998Z,100581.16
2019-01-25T22:00:50.896Z,100577.30
2019-01-25T22:03:17.700Z,100569.97
2019-01-25T22:05:44.457Z,100563.20
2019-01-25T22:08:11.355Z,100552.58
2019-01-25T22:10:41.254Z,100545.66
2019-01-25T22:13:08.099Z,100540.10
2019-01-25T22:15:34.970Z,100543.55
2019-01-25T22:18:02.427Z,100538.90
2019-01-25T22:20:29.412Z,100526.30
2019-01-25T22:22:56.256Z,100532.25
2019-01-25T22:25:23.304Z,100529.64
2019-01-25T22:27:52.233Z,100533.47
2019-01-25T22:30:20.758Z,100524.69
2019-01-25T22:33:00.524Z,100522.40
2019-01-25T22:35:27.375Z,100522.53
2019-01-25T22:37:54.797Z,100509.17
2019-01-25T22:41:04.016Z,100504.52
2019-01-25T22:43:30.753Z,100498.08
2019-01-25T22:45:58.784Z,100481.85
2019-01-25T22:48:26.725Z,100476.70
2019-01-25T22:50:53.575Z,100475.61
2019-01-25T22:53:20.695Z,100471.58
2019-01-25T22:55:47.625Z,100460.81
2019-01-25T22:58:14.442Z,100454.37
2019-01-25T23:04:22.379Z,100450.45
2019-01-25T23:07:10.403Z,100435.01
2019-01-25T23:09:40.366Z,100441.27
2019-01-25T23:12:48.426Z,100432.21
2019-01-25T23:15:16.631Z,100439.33
2019-01-25T23:17:44.304Z,100433.34
2019-01-25T23:22:40.955Z,100421.37
2019-01-25T23:25:09.034Z,100419.70
2019-01-25T23:27:36.016Z,100415.00
2019-01-25T23:30:44.419Z,100405.60
2019-01-25T23:33:11.840Z,100403.89
2019-01-25T23:35:38.813Z,100389.80
2019-01-25T23:38:06.261Z,100389.03
2019-01-25T23:41:14.045Z,100388.63
2019-01-25T23:43:41.232Z,100384.94
2019-01-25T23:46:13.767Z,100379.55
2019-01-25T23:48:36.929Z,100365.23
2019-01-25T23:51:03.904Z,100352.19
2019-01-25T23:53:30.655Z,100349.08
2019-01-25T23:55:57.414Z,100338.02
2019-01-25T23:58:24.252Z,100333.81
